Time;durP1;ratioP1;P1;durP2;ratioP2;P2;SDS_P1;SDS_P2;PMS_P1;PMS_P2;Temp;Humidity;BMP_temperature;BMP_pressure;BME280_temperature;BME280_humidity;BME280_pressure;Samples;Min_cycle;Max_cycle;Signal;HPM_P1;HPM_P2
2024/01/21 00:01:31;;;;;;;31.80;19.30;;;;;;;-8.77;100.00;102158.85;110031;1238;71236;-71
2024/01/21 00:04:00;;;;;;;33.80;19.20;;;;;;;-8.83;100.00;102154.11;110029;1236;70644;-71
2024/01/21 00:06:29;;;;;;;31.00;19.00;;;;;;;-8.87;100.00;102153.48;109907;1239;72623;-71
2024/01/21 00:08:58;;;;;;;36.40;20.30;;;;;;;-8.87;100.00;102154.17;110113;1238;61015;-70
2024/01/21 00:11:27;;;;;;;34.40;20.20;;;;;;;-8.91;100.00;102154.17;110148;1236;60977;-71
2024/01/21 00:13:55;;;;;;;41.40;22.20;;;;;;;-8.94;100.00;102156.98;110167;1238;74043;-71
2024/01/21 00:16:24;;;;;;;44.00;22.70;;;;;;;-8.94;100.00;102156.64;110187;1239;70070;-70
2024/01/21 00:18:53;;;;;;;50.80;25.00;;;;;;;-8.92;100.00;102157.55;110190;1237;69045;-70
2024/01/21 00:21:22;;;;;;;44.20;23.00;;;;;;;-8.91;100.00;102167.69;110195;1238;74171;-73
2024/01/21 00:23:50;;;;;;;49.60;24.50;;;;;;;-8.92;100.00;102167.52;110212;1237;62504;-71
2024/01/21 00:26:19;;;;;;;49.50;24.60;;;;;;;-8.99;100.00;102163.92;110123;1239;58552;-71
2024/01/21 00:28:48;;;;;;;48.60;23.60;;;;;;;-8.93;100.00;102168.14;110176;1239;71563;-72
2024/01/21 00:31:17;;;;;;;47.70;27.10;;;;;;;-8.90;100.00;102162.68;109974;1238;72238;-71
2024/01/21 00:33:45;;;;;;;48.50;26.00;;;;;;;-8.88;100.00;102171.84;110184;1237;71004;-71
2024/01/21 00:36:14;;;;;;;68.60;30.60;;;;;;;-8.84;100.00;102168.43;110176;1238;71583;-70
2024/01/21 00:38:43;;;;;;;48.90;24.30;;;;;;;-8.83;100.00;102164.92;110043;1241;60514;-69
2024/01/21 00:41:15;;;;;;;40.30;21.50;;;;;;;-8.83;100.00;102168.45;110184;1237;60195;-70
2024/01/21 00:43:44;;;;;;;40.40;22.80;;;;;;;-8.80;100.00;102170.91;110223;1238;71459;-70
2024/01/21 00:46:13;;;;;;;40.70;20.10;;;;;;;-8.75;100.00;102175.79;110180;1239;69692;-71
2024/01/21 00:48:42;;;;;;;39.00;19.40;;;;;;;-8.75;100.00;102176.29;110219;1238;69402;-71
2024/01/21 00:51:11;;;;;;;37.20;22.30;;;;;;;-8.73;100.00;102175.84;110161;1239;72305;-71
2024/01/21 00:53:40;;;;;;;40.00;20.80;;;;;;;-8.74;100.00;102177.32;110135;1238;61164;-70
2024/01/21 00:56:09;;;;;;;36.20;20.50;;;;;;;-8.73;100.00;102178.54;110213;1236;59923;-70
2024/01/21 00:58:37;;;;;;;41.30;22.30;;;;;;;-8.80;100.00;102186.79;110159;1238;73943;-70
2024/01/21 01:01:06;;;;;;;39.70;23.50;;;;;;;-8.92;100.00;102179.52;110183;1238;69495;-70
2024/01/21 01:03:35;;;;;;;43.00;24.10;;;;;;;-8.88;100.00;102190.10;110169;1238;68333;-69
2024/01/21 01:06:05;;;;;;;67.50;32.90;;;;;;;-8.88;100.00;102187.71;109891;1236;71063;-70
2024/01/21 01:08:34;;;;;;;41.70;21.40;;;;;;;-8.86;100.00;102192.68;109975;1239;61781;-70
2024/01/21 01:11:03;;;;;;;31.70;18.20;;;;;;;-8.84;100.00;102186.49;109996;1236;60417;-71
2024/01/21 01:13:31;;;;;;;37.60;22.00;;;;;;;-8.89;100.00;102181.78;110012;1238;73205;-70
2024/01/21 01:16:00;;;;;;;46.40;20.70;;;;;;;-8.90;100.00;102179.06;110039;1237;69351;-71
2024/01/21 01:18:29;;;;;;;44.90;21.50;;;;;;;-8.95;100.00;102173.66;109820;1241;67659;-69
2024/01/21 01:20:58;;;;;;;43.20;21.30;;;;;;;-8.95;100.00;102177.05;110009;1237;70844;-71
2024/01/21 01:23:29;;;;;;;41.60;24.40;;;;;;;-8.99;100.00;102177.08;110117;1236;61417;-70
2024/01/21 01:25:57;;;;;;;37.80;21.60;;;;;;;-9.00;100.00;102178.73;110046;1239;62023;-70
2024/01/21 01:28:26;;;;;;;37.50;20.60;;;;;;;-9.04;100.00;102176.77;110112;1239;71166;-71
2024/01/21 01:30:55;;;;;;;38.60;21.00;;;;;;;-9.02;100.00;102178.98;109989;1238;70148;-71
2024/01/21 01:33:24;;;;;;;38.50;21.70;;;;;;;-9.01;100.00;102180.20;110095;1238;70491;-71
2024/01/21 01:35:53;;;;;;;36.10;21.50;;;;;;;-9.06;100.00;102180.22;109982;1238;72977;-72
2024/01/21 01:38:22;;;;;;;49.00;25.40;;;;;;;-9.09;100.00;102190.95;109914;1239;61927;-72
2024/01/21 01:40:51;;;;;;;45.60;25.60;;;;;;;-9.09;100.00;102195.52;109933;1238;60979;-70
2024/01/21 01:43:19;;;;;;;45.20;26.90;;;;;;;-9.08;100.00;102197.06;109950;1238;73882;-70
2024/01/21 01:45:48;;;;;;;51.40;28.60;;;;;;;-9.14;100.00;102198.38;109949;1238;70588;-71
2024/01/21 01:48:19;;;;;;;54.90;30.50;;;;;;;-9.12;100.00;102204.88;109870;1237;68583;-71
2024/01/21 01:50:49;;;;;;;68.10;36.90;;;;;;;-9.08;100.00;102205.34;109812;1238;70893;-69
2024/01/21 01:53:18;;;;;;;82.30;37.80;;;;;;;-9.05;100.00;102207.45;109920;1238;60230;-70
2024/01/21 01:55:47;;;;;;;72.20;37.10;;;;;;;-8.97;100.00;102208.70;109727;1238;58667;-71
2024/01/21 01:58:18;;;;;;;70.90;36.40;;;;;;;-8.93;100.00;102209.33;110022;1238;72188;-71
2024/01/21 02:00:47;;;;;;;59.50;32.50;;;;;;;-8.88;100.00;102202.41;109948;1238;71713;-70
2024/01/21 02:03:17;;;;;;;70.80;37.20;;;;;;;-8.83;100.00;102202.40;110084;1238;70907;-70
2024/01/21 02:05:46;;;;;;;76.40;39.10;;;;;;;-8.78;100.00;102207.10;110085;1238;72155;-72
2024/01/21 02:08:15;;;;;;;71.40;36.80;;;;;;;-8.75;100.00;102202.98;110085;1239;61616;-70
2024/01/21 02:10:44;;;;;;;56.70;30.30;;;;;;;-8.69;100.00;102210.41;110003;1238;60695;-71
2024/01/21 02:13:13;;;;;;;53.40;28.80;;;;;;;-8.68;100.00;102214.02;110015;1238;72527;-71
2024/01/21 02:15:41;;;;;;;67.10;34.90;;;;;;;-8.62;100.00;102212.65;110005;1238;72481;-71
2024/01/21 02:18:10;;;;;;;60.40;32.10;;;;;;;-8.58;100.00;102212.42;110069;1238;70228;-70
2024/01/21 02:20:39;;;;;;;60.30;33.00;;;;;;;-8.56;100.00;102217.39;109915;1239;74020;-71
2024/01/21 02:23:10;;;;;;;66.60;33.10;;;;;;;-8.54;100.00;102212.90;109813;1239;60976;-71
2024/01/21 02:25:39;;;;;;;73.30;35.60;;;;;;;-8.51;100.00;102211.95;109902;1238;60427;-71
2024/01/21 02:28:07;;;;;;;63.40;33.90;;;;;;;-8.47;100.00;102217.34;109861;1238;73969;-71
2024/01/21 02:30:40;;;;;;;57.10;31.30;;;;;;;-8.38;100.00;102224.86;109871;1238;71398;-70
2024/01/21 02:33:10;;;;;;;57.10;29.90;;;;;;;-8.30;100.00;102229.12;109765;1238;70599;-71
2024/01/21 02:35:39;;;;;;;53.80;28.70;;;;;;;-8.21;100.00;102229.70;109872;1237;73609;-71
2024/01/21 02:38:07;;;;;;;52.50;28.20;;;;;;;-8.13;100.00;102227.57;109862;1239;62718;-71
2024/01/21 02:40:38;;;;;;;51.20;29.70;;;;;;;-8.02;100.00;102235.16;109921;1238;59603;-71
2024/01/21 02:43:07;;;;;;;55.00;28.60;;;;;;;-8.00;100.00;102241.29;109580;1238;73525;-71
2024/01/21 02:45:36;;;;;;;56.50;30.10;;;;;;;-7.90;100.00;102250.38;109926;1239;71466;-70
2024/01/21 02:48:05;;;;;;;52.30;30.00;;;;;;;-7.84;100.00;102252.23;109949;1238;70634;-71
2024/01/21 02:50:34;;;;;;;54.60;30.10;;;;;;;-7.76;100.00;102255.69;109845;1238;71125;-71
2024/01/21 02:53:03;;;;;;;58.00;30.20;;;;;;;-7.66;100.00;102256.45;109914;1239;62629;-71
2024/01/21 02:55:32;;;;;;;58.50;31.10;;;;;;;-7.61;100.00;102263.34;109840;1241;61384;-71
2024/01/21 02:58:00;;;;;;;57.00;31.70;;;;;;;-7.50;100.00;102264.32;109929;1238;73881;-72
2024/01/21 03:00:29;;;;;;;62.50;32.20;;;;;;;-7.35;100.00;102268.94;109925;1238;69984;-71
2024/01/21 03:02:58;;;;;;;55.10;31.10;;;;;;;-7.26;100.00;102282.40;110152;1237;69185;-72
2024/01/21 03:05:28;;;;;;;61.00;32.10;;;;;;;-7.17;100.00;102281.76;110158;1238;71132;-70
2024/01/21 03:07:57;;;;;;;54.90;30.70;;;;;;;-7.08;100.00;102286.73;110135;1239;60252;-72
2024/01/21 03:10:25;;;;;;;58.10;30.10;;;;;;;-6.95;100.00;102289.09;110028;1237;61179;-70
2024/01/21 03:12:54;;;;;;;55.00;29.40;;;;;;;-6.91;100.00;102287.51;110131;1237;72432;-71
2024/01/21 03:15:23;;;;;;;55.20;28.70;;;;;;;-7.10;100.00;102295.13;110137;1237;70246;-71
2024/01/21 03:17:52;;;;;;;56.80;28.60;;;;;;;-7.13;100.00;102291.54;110143;1238;70318;-72
2024/01/21 03:20:20;;;;;;;52.60;29.40;;;;;;;-7.03;100.00;102287.71;110031;1238;74776;-71
2024/01/21 03:22:49;;;;;;;60.20;31.70;;;;;;;-6.99;100.00;102293.92;110118;1238;61544;-71
2024/01/21 03:25:18;;;;;;;54.30;28.80;;;;;;;-6.92;100.00;102295.11;110109;1239;58789;-71
2024/01/21 03:27:46;;;;;;;52.30;30.10;;;;;;;-6.84;100.00;102295.63;110088;1238;72659;-71
2024/01/21 03:30:17;;;;;;;54.00;32.20;;;;;;;-6.70;100.00;102298.67;110109;1237;70558;-71
2024/01/21 03:32:46;;;;;;;56.50;31.30;;;;;;;-6.51;100.00;102302.17;110102;1237;68997;-71
2024/01/21 03:35:15;;;;;;;56.50;30.00;;;;;;;-6.42;100.00;102305.45;110112;1239;72926;-72
2024/01/21 03:37:43;;;;;;;54.70;29.80;;;;;;;-6.36;100.00;102308.61;110102;1239;62811;-73
2024/01/21 03:40:12;;;;;;;52.90;29.60;;;;;;;-6.24;100.00;102317.55;110073;1237;59348;-73
2024/01/21 03:42:45;;;;;;;59.30;30.30;;;;;;;-6.17;100.00;102319.58;110143;1237;71515;-71
2024/01/21 03:45:14;;;;;;;52.30;29.70;;;;;;;-6.01;100.00;102322.30;110087;1238;69761;-72
2024/01/21 03:47:43;;;;;;;56.40;30.70;;;;;;;-5.91;100.00;102318.74;110144;1238;70883;-72
2024/01/21 03:50:11;;;;;;;61.40;30.00;;;;;;;-5.86;100.00;102318.52;110094;1237;73879;-71
2024/01/21 03:52:40;;;;;;;58.60;30.50;;;;;;;-5.79;100.00;102319.14;110024;1238;61532;-70
2024/01/21 03:55:09;;;;;;;53.60;29.00;;;;;;;-5.63;100.00;102327.30;110118;1238;58635;-71
2024/01/21 03:57:38;;;;;;;52.80;28.60;;;;;;;-5.56;100.00;102330.46;110134;1237;73283;-70
2024/01/21 04:00:08;;;;;;;52.20;29.30;;;;;;;-5.53;100.00;102333.77;110150;1237;71242;-70
2024/01/21 04:02:40;;;;;;;55.20;29.10;;;;;;;-5.47;100.00;102333.20;110173;1237;68323;-71
2024/01/21 04:05:09;;;;;;;51.60;28.50;;;;;;;-5.40;100.00;102333.00;110092;1238;71065;-72
2024/01/21 04:07:38;;;;;;;54.20;29.80;;;;;;;-5.36;100.00;102325.93;110142;1239;61127;-71
2024/01/21 04:10:07;;;;;;;55.70;28.60;;;;;;;-5.35;100.00;102333.60;110112;1237;60396;-71
2024/01/21 04:12:37;;;;;;;51.30;28.80;;;;;;;-5.31;100.00;102336.56;110196;1237;71890;-69
2024/01/21 04:15:06;;;;;;;50.00;28.20;;;;;;;-5.26;100.00;102339.88;110167;1239;70180;-72
2024/01/21 04:17:36;;;;;;;55.20;30.00;;;;;;;-5.17;100.00;102340.05;110091;1237;67660;-71
2024/01/21 04:20:07;;;;;;;54.40;28.70;;;;;;;-5.12;100.00;102341.17;110127;1237;73004;-71
2024/01/21 04:22:36;;;;;;;52.50;29.80;;;;;;;-5.05;100.00;102347.24;110069;1239;60236;-71
2024/01/21 04:25:05;;;;;;;57.90;28.40;;;;;;;-4.98;100.00;102346.36;110026;1238;59408;-71
2024/01/21 04:27:34;;;;;;;54.70;30.50;;;;;;;-4.88;100.00;102350.60;110136;1238;72162;-71
2024/01/21 04:30:03;;;;;;;58.60;30.30;;;;;;;-4.93;100.00;102346.60;110144;1237;71379;-71
2024/01/21 04:32:32;;;;;;;61.20;30.10;;;;;;;-4.99;100.00;102351.59;110073;1237;68963;-69
2024/01/21 04:35:01;;;;;;;52.40;29.90;;;;;;;-4.95;100.00;102352.17;110055;1237;71644;-70
2024/01/21 04:37:30;;;;;;;49.70;28.20;;;;;;;-4.90;100.00;102352.63;110085;1238;61265;-69
2024/01/21 04:39:59;;;;;;;53.50;30.70;;;;;;;-4.84;100.00;102361.73;110180;1238;57812;-70
2024/01/21 04:42:28;;;;;;;59.40;30.50;;;;;;;-4.81;100.00;102367.04;110212;1238;70713;-70
2024/01/21 04:44:57;;;;;;;60.20;30.60;;;;;;;-4.71;100.00;102373.67;110177;1237;71502;-69
2024/01/21 04:47:26;;;;;;;54.20;29.30;;;;;;;-4.65;100.00;102378.52;110165;1237;68603;-70
2024/01/21 04:49:55;;;;;;;56.30;29.60;;;;;;;-4.63;100.00;102379.94;110150;1238;73818;-73
2024/01/21 04:52:23;;;;;;;59.80;29.20;;;;;;;-4.59;100.00;102379.14;110107;1238;63057;-72
2024/01/21 04:54:52;;;;;;;61.20;31.20;;;;;;;-4.52;100.00;102383.16;110078;1240;58653;-71
2024/01/21 04:57:21;;;;;;;56.80;30.60;;;;;;;-4.51;100.00;102386.25;110175;1239;70437;-70
2024/01/21 04:59:50;;;;;;;58.60;32.00;;;;;;;-4.50;100.00;102385.74;110201;1239;69527;-71
2024/01/21 05:02:18;;;;;;;51.90;28.90;;;;;;;-4.47;100.00;102394.47;110173;1237;69618;-71
2024/01/21 05:04:47;;;;;;;51.40;27.50;;;;;;;-4.45;100.00;102399.79;110177;1238;73171;-70
2024/01/21 05:07:16;;;;;;;49.40;27.50;;;;;;;-4.42;100.00;102397.11;110086;1240;61268;-71
2024/01/21 05:09:45;;;;;;;52.20;26.80;;;;;;;-4.42;100.00;102397.61;110068;1238;58609;-71
2024/01/21 05:12:14;;;;;;;51.50;27.60;;;;;;;-4.39;100.00;102403.95;110088;1237;73471;-71
2024/01/21 05:14:42;;;;;;;53.20;28.70;;;;;;;-4.31;100.00;102403.58;110102;1237;72440;-71
2024/01/21 05:17:11;;;;;;;50.40;29.30;;;;;;;-4.26;100.00;102409.62;110080;1237;69875;-70
2024/01/21 05:19:40;;;;;;;50.60;27.90;;;;;;;-4.25;100.00;102413.89;110040;1237;70641;-70
2024/01/21 05:22:10;;;;;;;55.10;29.50;;;;;;;-4.20;100.00;102414.64;110103;1238;62329;-71
2024/01/21 05:24:38;;;;;;;51.30;28.90;;;;;;;-4.20;100.00;102419.59;110039;1237;60777;-71
2024/01/21 05:27:07;;;;;;;55.20;30.00;;;;;;;-4.20;100.00;102418.21;110065;1239;71882;-70
2024/01/21 05:29:36;;;;;;;57.20;30.50;;;;;;;-4.17;100.00;102418.45;110090;1237;69462;-72
2024/01/21 05:32:06;;;;;;;51.80;28.80;;;;;;;-4.16;100.00;102421.67;110083;1237;69316;-71
2024/01/21 05:34:34;;;;;;;48.70;27.50;;;;;;;-4.19;100.00;102424.20;110062;1237;73447;-70
2024/01/21 05:37:03;;;;;;;51.90;30.30;;;;;;;-4.18;100.00;102424.55;110044;1239;61082;-70
2024/01/21 05:39:32;;;;;;;58.90;30.50;;;;;;;-4.23;100.00;102430.42;109963;1237;60194;-70
2024/01/21 05:42:07;;;;;;;56.00;30.30;;;;;;;-4.31;100.00;102432.68;109947;1238;71491;-84
2024/01/21 05:44:36;;;;;;;52.80;29.30;;;;;;;-4.41;100.00;102439.98;109762;1237;70026;-70
2024/01/21 05:47:05;;;;;;;54.80;28.70;;;;;;;-4.48;100.00;102444.95;109989;1239;68541;-70
2024/01/21 05:49:34;;;;;;;55.70;31.10;;;;;;;-4.51;100.00;102447.81;109974;1237;73532;-70
2024/01/21 05:52:03;;;;;;;63.00;32.90;;;;;;;-4.63;100.00;102451.34;109856;1239;63062;-68
2024/01/21 05:54:32;;;;;;;56.80;29.90;;;;;;;-4.63;100.00;102459.16;109832;1238;59937;-71
2024/01/21 05:57:01;;;;;;;61.30;32.00;;;;;;;-4.69;100.00;102460.25;109918;1237;72856;-72
2024/01/21 05:59:29;;;;;;;59.70;31.10;;;;;;;-4.69;100.00;102459.39;109910;1238;72882;-71
2024/01/21 06:01:58;;;;;;;61.00;32.30;;;;;;;-4.68;100.00;102461.27;109825;1237;67614;-71
2024/01/21 06:04:27;;;;;;;54.50;30.30;;;;;;;-4.68;100.00;102466.56;109638;1237;72306;-80
2024/01/21 06:06:58;;;;;;;56.00;30.20;;;;;;;-4.64;100.00;102469.34;109771;1239;61243;-72
2024/01/21 06:09:26;;;;;;;51.10;31.10;;;;;;;-4.58;100.00;102468.45;109918;1237;60157;-72
2024/01/21 06:11:55;;;;;;;58.90;33.10;;;;;;;-4.54;100.00;102465.94;109881;1239;72140;-72
2024/01/21 06:14:24;;;;;;;59.80;32.30;;;;;;;-4.45;100.00;102463.21;109876;1238;71667;-72
2024/01/21 06:16:53;;;;;;;57.70;33.10;;;;;;;-4.44;100.00;102464.25;109951;1237;69494;-72
2024/01/21 06:19:22;;;;;;;60.70;35.70;;;;;;;-4.41;100.00;102466.52;109989;1239;71858;-72
2024/01/21 06:21:51;;;;;;;74.30;39.50;;;;;;;-4.26;100.00;102465.42;110046;1238;59459;-71
2024/01/21 06:24:20;;;;;;;63.70;35.40;;;;;;;-4.15;100.00;102466.80;109954;1237;60201;-72
2024/01/21 06:26:52;;;;;;;60.90;35.10;;;;;;;-4.08;100.00;102470.31;110035;1241;71987;-72
2024/01/21 06:29:20;;;;;;;67.30;38.00;;;;;;;-4.06;100.00;102475.27;110151;1237;71360;-72
2024/01/21 06:31:49;;;;;;;61.00;34.80;;;;;;;-4.05;100.00;102474.11;110009;1239;68861;-70
2024/01/21 06:34:18;;;;;;;55.60;32.00;;;;;;;-4.04;100.00;102477.52;110165;1239;71738;-75
2024/01/21 06:36:47;;;;;;;53.30;31.40;;;;;;;-4.11;100.00;102475.03;110315;1235;62530;-72
2024/01/21 06:39:16;;;;;;;55.30;31.50;;;;;;;-4.13;100.00;102474.98;110251;1235;60483;-71
2024/01/21 06:41:44;;;;;;;64.10;34.30;;;;;;;-4.20;100.00;102479.13;110203;1235;73626;-71
2024/01/21 06:44:13;;;;;;;59.40;31.50;;;;;;;-4.30;100.00;102482.19;110291;1236;70088;-71
2024/01/21 06:46:42;;;;;;;66.50;37.10;;;;;;;-4.33;100.00;102481.80;110365;1236;68463;-71
2024/01/21 06:49:11;;;;;;;44.20;24.10;;;;;;;-4.31;100.00;102486.77;110445;1236;71713;-71
2024/01/21 06:51:55;;;;;;;43.90;23.60;;;;;;;-4.24;100.00;102488.58;110510;1235;60338;-73
2024/01/21 06:54:24;;;;;;;42.90;24.10;;;;;;;-4.20;100.00;102488.12;110171;1235;60298;-72
2024/01/21 06:56:53;;;;;;;49.40;26.40;;;;;;;-4.20;100.00;102491.54;110366;1234;74187;-72
2024/01/21 06:59:21;;;;;;;39.20;20.90;;;;;;;-4.11;100.00;102494.43;110525;1234;71732;-72
2024/01/21 07:01:50;;;;;;;45.70;23.80;;;;;;;-3.93;100.00;102496.41;110392;1238;68907;-72
2024/01/21 07:04:19;;;;;;;54.70;29.10;;;;;;;-3.79;100.00;102496.98;110371;1238;71822;-73
2024/01/21 07:06:48;;;;;;;41.70;24.30;;;;;;;-3.65;100.00;102498.89;110346;1237;60025;-72
2024/01/21 07:09:17;;;;;;;59.90;33.30;;;;;;;-3.66;100.00;102495.13;110392;1235;59368;-73
2024/01/21 07:11:46;;;;;;;69.20;38.90;;;;;;;-3.70;100.00;102483.16;110436;1234;72288;-72
2024/01/21 07:14:15;;;;;;;65.10;34.90;;;;;;;-3.54;100.00;102496.50;110169;1238;73147;-72
2024/01/21 07:16:44;;;;;;;70.30;37.00;;;;;;;-3.49;100.00;102496.57;110231;1238;68604;-73
2024/01/21 07:19:13;;;;;;;69.90;38.80;;;;;;;-3.47;100.00;102496.77;110247;1235;73167;-72
2024/01/21 07:21:42;;;;;;;65.40;35.50;;;;;;;-3.38;100.00;102496.21;110181;1236;60314;-73
2024/01/21 07:24:12;;;;;;;55.20;29.70;;;;;;;-3.33;100.00;102499.02;110090;1235;61957;-72
2024/01/21 07:26:40;;;;;;;61.80;34.20;;;;;;;-3.35;100.00;102497.95;110245;1238;74098;-72
2024/01/21 07:29:09;;;;;;;53.40;29.00;;;;;;;-3.27;100.00;102496.19;110264;1237;70605;-72
2024/01/21 07:31:38;;;;;;;54.70;29.50;;;;;;;-3.20;100.00;102495.94;110257;1236;68438;-73
2024/01/21 07:34:10;;;;;;;41.80;25.10;;;;;;;-3.21;100.00;102503.27;110205;1236;73059;-72
2024/01/21 07:36:39;;;;;;;47.60;26.20;;;;;;;-3.23;100.00;102505.96;110296;1236;60272;-72
2024/01/21 07:39:09;;;;;;;50.60;26.70;;;;;;;-3.34;100.00;102509.73;110323;1235;58823;-72
2024/01/21 07:41:37;;;;;;;49.40;24.90;;;;;;;-3.29;100.00;102513.73;110054;1234;73485;-73
2024/01/21 07:44:06;;;;;;;48.80;26.50;;;;;;;-3.28;100.00;102517.30;110316;1236;69922;-74
2024/01/21 07:46:35;;;;;;;46.60;25.50;;;;;;;-3.26;100.00;102516.82;110427;1234;68563;-72
2024/01/21 07:49:03;;;;;;;55.90;31.30;;;;;;;-3.19;100.00;102518.95;110442;1234;73772;-73
2024/01/21 07:51:33;;;;;;;55.60;30.20;;;;;;;-3.16;100.00;102517.98;110390;1237;62126;-73
2024/01/21 07:54:02;;;;;;;55.30;28.70;;;;;;;-3.13;100.00;102517.16;110291;1235;60832;-72
2024/01/21 07:56:31;;;;;;;54.00;28.80;;;;;;;-3.17;100.00;102523.75;110431;1234;74073;-72
2024/01/21 07:58:59;;;;;;;50.80;28.50;;;;;;;-3.18;100.00;102530.56;110377;1236;71686;-72
2024/01/21 08:01:28;;;;;;;43.90;23.60;;;;;;;-3.11;100.00;102532.86;110513;1238;69295;-71
2024/01/21 08:03:57;;;;;;;57.00;31.60;;;;;;;-3.05;100.00;102536.18;110488;1234;71697;-72
2024/01/21 08:06:26;;;;;;;55.80;31.50;;;;;;;-2.93;100.00;102538.39;110248;1236;59939;-72
2024/01/21 08:08:55;;;;;;;52.60;29.60;;;;;;;-2.77;100.00;102544.22;110427;1236;59431;-72
2024/01/21 08:11:24;;;;;;;56.00;32.00;;;;;;;-2.66;100.00;102547.91;110317;1235;70490;-71
2024/01/21 08:13:53;;;;;;;56.90;32.70;;;;;;;-2.64;100.00;102549.66;110270;1234;72204;-73
2024/01/21 08:16:22;;;;;;;48.70;29.00;;;;;;;-2.47;100.00;102555.80;110189;1233;71102;-80
2024/01/21 08:18:50;;;;;;;55.40;33.20;;;;;;;-2.11;100.00;102562.15;110230;1235;74048;-78
2024/01/21 08:21:20;;;;;;;54.60;31.40;;;;;;;-1.96;100.00;102563.32;110179;1238;62377;-79
2024/01/21 08:23:49;;;;;;;54.60;29.80;;;;;;;-1.90;100.00;102562.34;110364;1235;59141;-78
2024/01/21 08:26:18;;;;;;;51.20;30.00;;;;;;;-1.66;100.00;102564.93;110284;1234;72637;-74
2024/01/21 08:28:46;;;;;;;49.50;28.90;;;;;;;-1.37;100.00;102562.06;110299;1235;73312;-79
2024/01/21 08:31:16;;;;;;;47.20;27.60;;;;;;;-1.24;100.00;102564.38;110227;1236;68314;-70
2024/01/21 08:33:44;;;;;;;35.10;21.50;;;;;;;-1.03;100.00;102569.45;110122;1234;74177;-70
2024/01/21 08:36:13;;;;;;;48.10;27.20;;;;;;;-0.91;100.00;102573.63;110136;1237;63188;-73
2024/01/21 08:38:42;;;;;;;38.00;20.60;;;;;;;-0.70;100.00;102570.30;110280;1235;61415;-71
2024/01/21 08:41:11;;;;;;;26.20;15.20;;;;;;;-0.63;100.00;102573.40;110186;1235;72172;-73
2024/01/21 08:43:40;;;;;;;27.60;13.70;;;;;;;-0.58;100.00;102574.95;110353;1235;70077;-73
2024/01/21 08:46:12;;;;;;;32.50;16.50;;;;;;;-0.55;100.00;102573.77;110241;1235;68608;-75
2024/01/21 08:48:44;;;;;;;27.20;13.80;;;;;;;-0.53;100.00;102573.09;110295;1234;74477;-73
2024/01/21 08:51:13;;;;;;;23.40;13.10;;;;;;;-0.45;100.00;102573.63;110317;1236;62210;-73
2024/01/21 08:53:42;;;;;;;20.10;11.70;;;;;;;-0.35;100.00;102578.45;110247;1236;60745;-73
2024/01/21 08:56:10;;;;;;;19.00;11.00;;;;;;;-0.36;100.00;102579.31;110238;1235;72512;-72
2024/01/21 08:58:39;;;;;;;21.50;12.10;;;;;;;-0.30;100.00;102575.90;110188;1235;69501;-72
2024/01/21 09:01:08;;;;;;;11.10;6.70;;;;;;;-0.30;100.00;102569.55;110207;1235;68530;-74
2024/01/21 09:03:37;;;;;;;15.60;8.90;;;;;;;-0.28;100.00;102580.17;110200;1234;71703;-74
2024/01/21 09:06:06;;;;;;;9.20;6.00;;;;;;;-0.29;100.00;102581.88;110221;1235;59756;-74
2024/01/21 09:08:35;;;;;;;12.00;7.00;;;;;;;-0.29;100.00;102588.92;110245;1235;60196;-73
2024/01/21 09:11:04;;;;;;;21.00;12.90;;;;;;;-0.19;100.00;102592.54;109952;1235;74151;-74
2024/01/21 09:13:33;;;;;;;19.80;11.60;;;;;;;-0.07;100.00;102595.30;110199;1235;72397;-73
2024/01/21 09:16:02;;;;;;;35.20;20.60;;;;;;;0.12;100.00;102593.77;110176;1235;69367;-73
2024/01/21 09:18:31;;;;;;;21.20;10.90;;;;;;;0.24;100.00;102596.71;110219;1236;71137;-73
2024/01/21 09:21:00;;;;;;;21.00;13.00;;;;;;;0.42;100.00;102594.30;110180;1235;60330;-74
2024/01/21 09:23:29;;;;;;;21.80;13.00;;;;;;;0.61;100.00;102595.15;110098;1238;61035;-73
2024/01/21 09:25:57;;;;;;;15.70;9.10;;;;;;;0.74;100.00;102593.94;110202;1235;73864;-73
2024/01/21 09:28:26;;;;;;;22.30;12.70;;;;;;;0.86;100.00;102598.03;110205;1235;70685;-73
2024/01/21 09:30:55;;;;;;;24.60;13.70;;;;;;;0.99;100.00;102597.48;110250;1235;68612;-73
2024/01/21 09:33:24;;;;;;;18.90;11.50;;;;;;;1.03;100.00;102595.23;110132;1235;71221;-72
2024/01/21 09:35:53;;;;;;;16.10;9.50;;;;;;;1.23;100.00;102597.59;110173;1236;61074;-73
2024/01/21 09:38:22;;;;;;;17.60;8.90;;;;;;;1.37;100.00;102602.68;110185;1235;60956;-73
2024/01/21 09:41:01;;;;;;;12.20;7.60;;;;;;;1.38;100.00;102604.91;110195;1235;73475;-72
2024/01/21 09:43:33;;;;;;;15.70;9.50;;;;;;;1.56;100.00;102603.12;110123;1234;73010;-73
2024/01/21 09:46:04;;;;;;;16.00;8.50;;;;;;;1.69;100.00;102609.59;110181;1235;70670;-72
2024/01/21 09:48:35;;;;;;;11.50;8.50;;;;;;;1.82;100.00;102606.59;110257;1235;73845;-71
2024/01/21 09:51:08;;;;;;;13.00;8.00;;;;;;;1.98;100.00;102605.98;110120;1235;60526;-72
2024/01/21 09:53:37;;;;;;;17.00;8.60;;;;;;;2.10;100.00;102596.79;110086;1235;62311;-72
2024/01/21 09:56:07;;;;;;;14.20;8.10;;;;;;;2.21;100.00;102602.03;110156;1234;73922;-71
2024/01/21 09:58:55;;;;;;;14.70;8.70;;;;;;;2.28;100.00;102600.42;110191;1235;69869;-71
2024/01/21 10:01:24;;;;;;;14.10;8.30;;;;;;;2.45;100.00;102597.38;110264;1235;66851;-71
2024/01/21 10:03:53;;;;;;;17.10;9.20;;;;;;;2.49;100.00;102603.52;110223;1235;72992;-72
2024/01/21 10:06:25;;;;;;;15.10;8.70;;;;;;;2.85;100.00;102597.34;110327;1235;60045;-71
2024/01/21 10:09:13;;;;;;;11.40;7.50;;;;;;;3.21;100.00;102599.35;110182;1234;59466;-71
2024/01/21 10:11:47;;;;;;;12.10;7.00;;;;;;;3.50;100.00;102597.96;110243;1234;70774;-73
2024/01/21 10:14:16;;;;;;;9.30;6.50;;;;;;;3.58;100.00;102601.66;110159;1234;72184;-73
2024/01/21 10:16:45;;;;;;;13.50;8.40;;;;;;;3.62;100.00;102608.49;110300;1234;69823;-72
2024/01/21 10:19:14;;;;;;;12.00;6.60;;;;;;;3.64;100.00;102608.64;110246;1235;73989;-72
2024/01/21 10:21:44;;;;;;;13.60;8.50;;;;;;;3.54;100.00;102610.67;109890;1238;60953;-73
2024/01/21 10:24:13;;;;;;;12.20;9.00;;;;;;;3.69;100.00;102613.41;110323;1235;60010;-73
2024/01/21 10:26:42;;;;;;;11.00;7.70;;;;;;;3.71;100.00;102607.16;110157;1235;72757;-80
2024/01/21 10:29:12;;;;;;;12.70;8.90;;;;;;;3.51;100.00;102620.20;109979;1235;71889;-73
2024/01/21 10:31:40;;;;;;;12.50;8.40;;;;;;;3.52;100.00;102621.73;110136;1235;70781;-72
2024/01/21 10:34:09;;;;;;;13.00;7.40;;;;;;;3.31;100.00;102616.80;110274;1235;62800;-75
2024/01/21 10:36:43;;;;;;;12.80;8.10;;;;;;;3.00;100.00;102615.95;109729;1235;192141;-73
2024/01/21 10:39:18;;;;;;;15.40;9.10;;;;;;;3.18;100.00;102617.83;110104;1235;60622;-73
2024/01/21 10:41:47;;;;;;;13.10;8.70;;;;;;;3.41;100.00;102623.76;110031;1235;72975;-74
2024/01/21 10:44:16;;;;;;;12.30;7.10;;;;;;;3.52;100.00;102627.07;110111;1235;71792;-73
2024/01/21 10:46:46;;;;;;;15.60;9.00;;;;;;;3.71;100.00;102623.89;110079;1235;69454;-73
2024/01/21 10:49:15;;;;;;;13.30;8.00;;;;;;;3.71;100.00;102624.41;110224;1235;71805;-74
2024/01/21 10:51:46;;;;;;;12.90;8.40;;;;;;;3.59;100.00;102616.45;110179;1235;57447;-75
2024/01/21 10:54:15;;;;;;;14.90;8.50;;;;;;;3.43;100.00;102628.55;110141;1235;60980;-75
2024/01/21 10:56:44;;;;;;;12.70;8.00;;;;;;;3.20;100.00;102635.70;110276;1235;73955;-74
2024/01/21 10:59:13;;;;;;;14.10;8.50;;;;;;;3.08;100.00;102637.89;109981;1235;71955;-74
2024/01/21 11:01:42;;;;;;;12.90;8.60;;;;;;;2.87;100.00;102641.20;110131;1235;70700;-74
2024/01/21 11:04:12;;;;;;;15.50;7.80;;;;;;;2.76;100.00;102647.50;109981;1235;72323;-75
2024/01/21 11:06:48;;;;;;;12.20;7.60;;;;;;;3.37;100.00;102642.74;110232;1236;59141;-74